createdAt,value
2022-07-25T00:02:24.681Z,28.50
2022-07-25T00:05:00.630Z,28.50
2022-07-25T00:07:35.065Z,28.50
2022-07-25T00:10:12.938Z,28.50
2022-07-25T00:12:47.020Z,28.50
2022-07-25T00:15:20.820Z,28.50
2022-07-25T00:17:54.660Z,28.70
2022-07-25T00:20:31.150Z,28.90
2022-07-25T00:23:05.138Z,29.10
2022-07-25T00:25:39.005Z,29.30
2022-07-25T00:28:25.355Z,29.40
2022-07-25T00:30:59.631Z,29.50
2022-07-25T00:33:37.242Z,29.50
2022-07-25T00:36:16.237Z,29.50
2022-07-25T00:38:49.467Z,29.40
2022-07-25T00:41:23.432Z,29.50
2022-07-25T00:44:00.040Z,29.50
2022-07-25T00:46:33.945Z,29.60
2022-07-25T00:49:07.366Z,29.60
2022-07-25T00:51:42.751Z,29.70
2022-07-25T00:54:16.904Z,29.80
2022-07-25T00:56:50.492Z,29.90
2022-07-25T00:59:24.192Z,30.00
2022-07-25T01:01:58.501Z,30.10
2022-07-25T01:04:36.700Z,30.30
2022-07-25T01:07:12.424Z,30.30
2022-07-25T01:09:46.324Z,30.50
2022-07-25T01:12:20.238Z,30.60
2022-07-25T01:14:54.178Z,30.60
2022-07-25T01:17:27.854Z,30.40
2022-07-25T01:20:01.842Z,30.40
2022-07-25T01:22:37.852Z,30.10
2022-07-25T01:25:12.469Z,30.40
2022-07-25T01:27:51.261Z,30.80
2022-07-25T01:30:30.020Z,31.00
2022-07-25T01:33:06.880Z,31.20
2022-07-25T01:35:43.545Z,31.20
2022-07-25T01:38:19.613Z,31.60
2022-07-25T01:40:54.704Z,31.90
2022-07-25T01:43:27.936Z,32.00
2022-07-25T01:46:02.606Z,32.00
2022-07-25T01:48:36.603Z,32.30
2022-07-25T01:51:11.633Z,32.40
2022-07-25T01:53:47.273Z,32.70
2022-07-25T01:56:21.906Z,32.80
2022-07-25T01:58:55.777Z,32.50
2022-07-25T02:01:29.872Z,32.30
2022-07-25T02:04:03.956Z,32.30
2022-07-25T02:06:42.740Z,32.10
2022-07-25T02:09:17.954Z,32.90
2022-07-25T02:11:51.802Z,32.90
2022-07-25T02:14:27.098Z,33.10
2022-07-25T02:17:01.077Z,33.50
2022-07-25T02:19:35.331Z,33.80
2022-07-25T02:22:08.750Z,33.90
2022-07-25T02:24:45.266Z,34.10
2022-07-25T02:27:19.085Z,34.10
2022-07-25T02:29:52.731Z,34.10
2022-07-25T02:32:26.581Z,34.20
2022-07-25T02:35:00.533Z,34.90
2022-07-25T02:37:34.148Z,35.00
2022-07-25T02:40:09.554Z,35.50
2022-07-25T02:42:43.110Z,35.50
2022-07-25T02:45:16.639Z,35.60
2022-07-25T02:47:50.128Z,35.60
2022-07-25T02:50:23.526Z,35.50
2022-07-25T02:52:57.674Z,35.60
2022-07-25T02:55:33.590Z,36.10
2022-07-25T02:58:07.196Z,36.30
2022-07-25T03:00:41.779Z,36.90
2022-07-25T03:03:18.116Z,37.30
2022-07-25T03:05:52.808Z,37.70
2022-07-25T03:08:26.900Z,37.70
2022-07-25T03:11:02.295Z,37.20
2022-07-25T03:13:36.906Z,37.60
2022-07-25T03:16:11.486Z,36.00
2022-07-25T03:18:47.708Z,35.60
2022-07-25T03:21:21.883Z,36.20
2022-07-25T03:23:54.796Z,37.50
2022-07-25T03:26:30.621Z,37.40
2022-07-25T03:29:04.525Z,37.60
2022-07-25T03:31:38.609Z,37.60
2022-07-25T03:34:12.727Z,37.40
2022-07-25T03:36:47.720Z,37.40
2022-07-25T03:39:21.898Z,37.50
2022-07-25T03:41:57.448Z,37.70
2022-07-25T03:44:46.845Z,37.70
2022-07-25T03:47:21.094Z,36.90
2022-07-25T03:49:54.571Z,36.90
2022-07-25T03:52:28.137Z,36.80
2022-07-25T03:55:01.979Z,36.70
2022-07-25T03:57:38.131Z,35.90
2022-07-25T04:00:14.028Z,35.60
2022-07-25T04:02:47.647Z,35.90
2022-07-25T04:05:24.710Z,36.20
2022-07-25T04:07:58.208Z,37.00
2022-07-25T04:10:32.642Z,37.30
2022-07-25T04:13:08.419Z,37.50
2022-07-25T04:15:42.124Z,37.90
2022-07-25T04:18:20.877Z,37.80
2022-07-25T04:20:58.936Z,37.80
2022-07-25T04:23:33.106Z,37.50
2022-07-25T04:26:06.995Z,37.10
2022-07-25T04:28:42.691Z,36.90
2022-07-25T04:31:17.064Z,36.40
2022-07-25T04:33:50.914Z,36.30
2022-07-25T04:36:24.512Z,36.30
2022-07-25T04:38:58.354Z,36.40
2022-07-25T04:41:34.169Z,36.60
2022-07-25T04:44:10.241Z,35.90
2022-07-25T04:46:44.856Z,36.20
2022-07-25T04:49:23.874Z,36.40
2022-07-25T04:51:58.704Z,36.80
2022-07-25T04:54:32.783Z,37.00
2022-07-25T04:57:07.342Z,37.00
2022-07-25T04:59:43.393Z,36.60
2022-07-25T05:02:17.274Z,36.20
2022-07-25T05:04:51.947Z,36.00
2022-07-25T05:07:27.613Z,35.70
2022-07-25T05:10:01.552Z,35.90
2022-07-25T05:12:35.535Z,36.10
2022-07-25T05:15:12.561Z,36.40
2022-07-25T05:17:47.203Z,36.30
2022-07-25T05:20:23.366Z,36.40
2022-07-25T05:22:58.117Z,36.40
2022-07-25T05:25:32.922Z,36.20
2022-07-25T05:28:06.951Z,35.90
2022-07-25T05:30:42.559Z,35.90
2022-07-25T05:33:20.890Z,35.80
2022-07-25T05:35:56.386Z,36.00
2022-07-25T05:38:30.157Z,35.80
2022-07-25T05:41:03.873Z,35.80
2022-07-25T05:43:37.857Z,36.10
2022-07-25T05:46:15.400Z,36.40
2022-07-25T05:48:49.578Z,36.60
2022-07-25T05:51:27.500Z,36.70
2022-07-25T05:54:05.808Z,36.50
2022-07-25T05:56:39.683Z,36.40
2022-07-25T05:59:13.929Z,36.20
2022-07-25T06:01:50.331Z,36.10
2022-07-25T06:04:27.290Z,36.00
2022-07-25T06:07:03.603Z,35.80
2022-07-25T06:09:39.160Z,36.10
2022-07-25T06:12:13.277Z,36.10
2022-07-25T06:14:48.164Z,36.20
2022-07-25T06:17:25.979Z,36.20
2022-07-25T06:20:03.150Z,36.40
2022-07-25T06:22:37.435Z,36.60
2022-07-25T06:25:14.464Z,36.80
2022-07-25T06:27:49.306Z,36.30
2022-07-25T06:30:23.437Z,36.60
2022-07-25T06:33:00.240Z,36.70
2022-07-25T06:35:34.574Z,36.90
2022-07-25T06:38:09.135Z,37.10
2022-07-25T06:40:43.750Z,37.00
2022-07-25T06:43:18.482Z,37.10
2022-07-25T06:45:53.522Z,37.00
2022-07-25T06:48:38.598Z,37.20
2022-07-25T06:51:12.987Z,37.40
2022-07-25T06:53:48.354Z,37.40
2022-07-25T06:56:22.731Z,37.20
2022-07-25T06:59:06.449Z,37.30
2022-07-25T07:01:45.061Z,36.80
2022-07-25T07:04:28.766Z,36.90
2022-07-25T07:07:04.180Z,37.20
2022-07-25T07:09:38.136Z,37.30
2022-07-25T07:12:12.949Z,37.30
2022-07-25T07:14:56.508Z,37.20
2022-07-25T07:17:30.748Z,37.10
2022-07-25T07:20:07.903Z,37.10
2022-07-25T07:22:53.388Z,37.00
2022-07-25T07:25:28.383Z,36.90
2022-07-25T07:28:03.326Z,37.10
2022-07-25T07:31:13.367Z,37.10
2022-07-25T07:33:34.157Z,36.90
2022-07-25T07:36:11.279Z,36.90
2022-07-25T07:38:46.558Z,36.80
2022-07-25T07:41:28.096Z,36.80
2022-07-25T07:44:02.647Z,36.80
2022-07-25T07:46:46.708Z,37.00
2022-07-25T07:49:49.774Z,37.00
2022-07-25T07:52:38.504Z,36.70
2022-07-25T07:55:25.802Z,36.20
2022-07-25T07:58:00.828Z,35.90
2022-07-25T08:00:40.908Z,35.70
2022-07-25T08:03:14.911Z,35.80
2022-07-25T08:05:50.565Z,35.50
2022-07-25T08:08:31.537Z,35.60
2022-07-25T08:11:06.842Z,35.80
2022-07-25T08:13:41.528Z,35.50
2022-07-25T08:16:16.852Z,35.50
2022-07-25T08:19:03.349Z,35.60
2022-07-25T08:21:38.105Z,35.60
2022-07-25T08:24:21.419Z,35.60
2022-07-25T08:26:56.835Z,35.60
2022-07-25T08:29:31.838Z,35.70
2022-07-25T08:32:06.730Z,35.50
2022-07-25T08:34:44.005Z,35.30
2022-07-25T08:37:42.228Z,35.10
2022-07-25T08:40:19.672Z,35.00
2022-07-25T08:42:56.650Z,35.10
2022-07-25T08:45:39.691Z,35.20
2022-07-25T08:48:14.541Z,35.00
2022-07-25T08:50:49.756Z,35.00
2022-07-25T08:53:33.646Z,35.10
2022-07-25T08:56:20.910Z,35.00
2022-07-25T08:58:55.486Z,35.00
2022-07-25T09:01:32.979Z,35.20
2022-07-25T09:04:11.705Z,35.20
2022-07-25T09:06:55.985Z,35.20
2022-07-25T09:09:37.268Z,34.90
2022-07-25T09:12:13.839Z,34.90
2022-07-25T09:14:50.435Z,34.70
2022-07-25T09:17:25.365Z,34.70
2022-07-25T09:20:02.083Z,34.80
2022-07-25T09:22:37.734Z,35.00
2022-07-25T09:25:23.847Z,35.00
2022-07-25T09:28:00.098Z,35.10
2022-07-25T09:30:33.851Z,35.00
2022-07-25T09:33:07.999Z,35.10
2022-07-25T09:35:43.009Z,35.00
2022-07-25T09:38:19.117Z,34.90
2022-07-25T09:41:04.870Z,35.20
2022-07-25T09:43:45.053Z,35.30
2022-07-25T09:46:18.835Z,35.30
2022-07-25T09:49:02.383Z,35.20
2022-07-25T09:51:37.159Z,35.10
2022-07-25T09:54:14.847Z,35.00
2022-07-25T09:56:48.737Z,34.90
2022-07-25T09:59:30.622Z,34.80
2022-07-25T10:02:12.069Z,34.80
2022-07-25T10:05:00.781Z,34.70
2022-07-25T10:07:35.407Z,34.70
2022-07-25T10:10:33.903Z,34.70
2022-07-25T10:13:13.286Z,34.90
2022-07-25T10:15:53.527Z,35.00
2022-07-25T10:18:29.246Z,34.90
2022-07-25T10:21:28.687Z,35.00
2022-07-25T10:24:07.759Z,34.90
2022-07-25T10:26:42.806Z,34.90
2022-07-25T10:29:17.226Z,34.80
2022-07-25T10:31:54.411Z,34.60
2022-07-25T10:34:34.618Z,34.60
2022-07-25T10:37:20.852Z,34.60
2022-07-25T10:39:54.673Z,34.70
2022-07-25T10:42:29.362Z,34.70
2022-07-25T10:45:10.787Z,34.70
2022-07-25T10:48:04.623Z,34.60
2022-07-25T10:50:54.876Z,34.50
2022-07-25T10:53:53.197Z,34.40
2022-07-25T11:17:27.711Z,34.00
2022-07-25T11:20:20.746Z,33.90
2022-07-25T11:23:06.407Z,33.90
2022-07-25T11:26:00.839Z,33.90
2022-07-25T11:29:05.295Z,33.90
2022-07-25T11:31:43.256Z,33.80
2022-07-25T11:34:57.675Z,33.80
2022-07-25T11:37:37.650Z,33.80
2022-07-25T11:40:13.924Z,33.80
2022-07-25T11:42:50.103Z,33.70
2022-07-25T11:45:25.379Z,33.70
2022-07-25T11:48:09.273Z,33.70
2022-07-25T11:50:47.065Z,33.60
2022-07-25T11:53:22.741Z,33.60
2022-07-25T11:55:56.933Z,33.60
2022-07-25T11:58:30.977Z,33.50
2022-07-25T12:01:04.592Z,33.50
2022-07-25T12:03:43.605Z,33.50
2022-07-25T12:06:19.018Z,33.50
2022-07-25T12:08:53.945Z,33.40
2022-07-25T12:11:28.732Z,33.40
2022-07-25T12:14:09.346Z,33.30
2022-07-25T12:16:43.495Z,33.30
2022-07-25T12:19:25.486Z,33.40
2022-07-25T12:22:02.332Z,33.30
2022-07-25T12:24:38.079Z,33.30
2022-07-25T12:27:12.795Z,33.30
2022-07-25T12:29:46.424Z,33.20
2022-07-25T12:32:20.235Z,33.10
2022-07-25T12:34:54.774Z,33.10
2022-07-25T12:37:33.334Z,33.20
2022-07-25T12:40:08.023Z,33.20
2022-07-25T12:42:42.062Z,33.10
2022-07-25T12:45:17.243Z,33.10
2022-07-25T12:47:52.776Z,33.10
2022-07-25T12:50:29.315Z,33.00
2022-07-25T12:53:06.174Z,33.10
2022-07-25T12:55:40.672Z,33.10
2022-07-25T12:58:17.018Z,33.10
2022-07-25T13:00:50.860Z,33.10
2022-07-25T13:03:25.377Z,33.00
2022-07-25T13:06:00.068Z,33.00
2022-07-25T13:08:39.040Z,33.00
2022-07-25T13:11:14.234Z,33.00
2022-07-25T13:13:48.628Z,33.00
2022-07-25T13:16:23.167Z,32.90
2022-07-25T13:19:01.193Z,32.90
2022-07-25T13:21:35.518Z,32.80
2022-07-25T13:24:12.675Z,32.80
2022-07-25T13:26:47.368Z,32.90
2022-07-25T13:29:22.379Z,32.90
2022-07-25T13:31:59.168Z,32.80
2022-07-25T13:34:34.775Z,32.70
2022-07-25T13:37:08.458Z,32.70
2022-07-25T13:39:44.487Z,32.60
2022-07-25T13:42:19.786Z,32.60
2022-07-25T13:44:55.896Z,32.60
2022-07-25T13:47:30.646Z,32.60
2022-07-25T13:50:05.000Z,32.50
2022-07-25T13:52:39.077Z,32.50
2022-07-25T13:55:15.788Z,32.50
2022-07-25T13:57:52.923Z,32.50
2022-07-25T14:00:26.598Z,32.50
2022-07-25T14:03:01.356Z,32.60
2022-07-25T14:05:35.336Z,32.50
2022-07-25T14:08:10.436Z,32.50
2022-07-25T14:10:49.782Z,32.40
2022-07-25T14:13:24.580Z,32.30
2022-07-25T14:15:59.436Z,32.30
2022-07-25T14:18:34.044Z,32.30
2022-07-25T14:21:10.838Z,32.30
2022-07-25T14:23:46.838Z,32.30
2022-07-25T14:26:23.922Z,32.20
2022-07-25T14:28:59.007Z,32.20
2022-07-25T14:34:24.276Z,32.20
2022-07-25T14:37:00.542Z,32.10
2022-07-25T14:39:35.193Z,32.10
2022-07-25T14:42:12.937Z,32.00
2022-07-25T14:44:47.737Z,32.00
2022-07-25T14:47:21.830Z,31.90
2022-07-25T14:49:58.584Z,31.90
2022-07-25T14:52:32.933Z,31.80
2022-07-25T14:55:14.278Z,31.80
2022-07-25T14:57:53.199Z,31.80
2022-07-25T15:00:29.577Z,31.80
2022-07-25T15:03:04.332Z,31.70
2022-07-25T15:05:39.855Z,31.70
2022-07-25T15:08:15.977Z,31.70
2022-07-25T15:10:54.551Z,31.70
2022-07-25T15:13:32.358Z,31.70
2022-07-25T15:16:09.129Z,31.70
2022-07-25T15:19:13.275Z,31.70
2022-07-25T15:21:41.252Z,31.70
2022-07-25T15:24:17.813Z,31.70
2022-07-25T15:26:53.174Z,31.60
2022-07-25T15:29:30.479Z,31.60
2022-07-25T15:32:10.691Z,31.50
2022-07-25T15:34:46.479Z,31.50
2022-07-25T15:37:20.659Z,31.50
2022-07-25T15:39:56.393Z,31.50
2022-07-25T15:42:32.145Z,31.60
2022-07-25T15:45:32.038Z,31.50
2022-07-25T15:48:05.703Z,31.40
2022-07-25T15:50:48.887Z,31.40
2022-07-25T15:53:23.963Z,31.40
2022-07-25T15:55:58.855Z,31.40
2022-07-25T15:58:33.902Z,31.40
2022-07-25T16:01:11.682Z,31.50
2022-07-25T16:03:45.932Z,31.40
2022-07-25T16:06:22.149Z,31.20
2022-07-25T16:08:58.610Z,31.10
2022-07-25T16:11:33.703Z,31.10
2022-07-25T16:14:08.471Z,31.10
2022-07-25T16:16:45.882Z,31.20
2022-07-25T16:19:20.421Z,31.20
2022-07-25T16:21:55.341Z,31.00
2022-07-25T16:24:31.069Z,31.00
2022-07-25T16:27:06.921Z,31.00
2022-07-25T16:29:41.974Z,31.00
2022-07-25T16:32:18.727Z,31.00
2022-07-25T16:34:53.911Z,31.10
2022-07-25T16:37:28.061Z,31.10
2022-07-25T16:40:06.527Z,31.20
2022-07-25T16:42:41.751Z,31.20
2022-07-25T16:45:17.272Z,31.10
2022-07-25T16:47:54.202Z,31.10
2022-07-25T16:50:29.074Z,31.20
2022-07-25T16:53:03.257Z,31.10
2022-07-25T16:55:38.514Z,31.10
2022-07-25T16:58:12.758Z,31.10
2022-07-25T17:00:48.700Z,31.00
2022-07-25T17:03:25.538Z,31.00
2022-07-25T17:05:59.204Z,31.00
2022-07-25T17:08:34.537Z,31.10
2022-07-25T17:11:09.080Z,31.00
2022-07-25T17:13:43.557Z,31.00
2022-07-25T17:16:17.747Z,31.00
2022-07-25T17:18:55.375Z,30.90
2022-07-25T17:21:30.137Z,30.80
2022-07-25T17:24:04.438Z,30.80
2022-07-25T17:26:39.536Z,30.80
2022-07-25T17:29:14.035Z,30.80
2022-07-25T17:31:49.063Z,30.80
2022-07-25T17:37:14.419Z,30.70
2022-07-25T17:39:48.442Z,30.70
2022-07-25T17:42:23.931Z,30.70
2022-07-25T17:44:58.697Z,30.70
2022-07-25T17:47:33.831Z,30.60
2022-07-25T17:50:10.428Z,30.70
2022-07-25T17:52:43.926Z,30.60
2022-07-25T17:55:17.905Z,30.50
2022-07-25T17:57:55.932Z,30.50
2022-07-25T18:00:30.768Z,30.60
2022-07-25T18:03:04.977Z,30.60
2022-07-25T18:05:41.098Z,30.60
2022-07-25T18:08:15.605Z,30.60
2022-07-25T18:10:50.758Z,30.60
2022-07-25T18:13:26.200Z,30.60
2022-07-25T18:16:01.498Z,30.60
2022-07-25T18:18:35.440Z,30.50
2022-07-25T18:21:11.437Z,30.50
2022-07-25T18:23:45.778Z,30.60
2022-07-25T18:26:19.456Z,30.70
2022-07-25T18:28:52.588Z,30.60
2022-07-25T18:31:25.771Z,30.60
2022-07-25T18:33:59.625Z,30.50
2022-07-25T18:36:35.489Z,30.50
2022-07-25T18:39:10.024Z,30.50
2022-07-25T18:41:43.848Z,30.60
2022-07-25T18:44:17.108Z,30.60
2022-07-25T18:46:51.117Z,30.60
2022-07-25T18:49:24.932Z,30.60
2022-07-25T18:52:00.282Z,30.60
2022-07-25T18:54:34.073Z,30.60
2022-07-25T18:57:08.295Z,30.60
2022-07-25T18:59:42.991Z,30.50
2022-07-25T19:02:17.094Z,30.50
2022-07-25T19:04:51.922Z,30.60
2022-07-25T19:07:28.465Z,30.60
2022-07-25T19:10:02.170Z,30.60
2022-07-25T19:12:35.542Z,30.50
2022-07-25T19:15:09.477Z,30.50
2022-07-25T19:17:43.345Z,30.40
2022-07-25T19:20:22.922Z,30.40
2022-07-25T19:22:58.991Z,30.30
2022-07-25T19:25:33.046Z,30.20
2022-07-25T19:28:08.099Z,30.30
2022-07-25T19:33:34.686Z,30.30
2022-07-25T19:36:10.566Z,30.40
2022-07-25T19:38:46.282Z,30.40
2022-07-25T19:41:20.456Z,30.40
2022-07-25T19:43:55.190Z,30.30
2022-07-25T19:46:32.256Z,30.10
2022-07-25T19:49:07.135Z,30.10
2022-07-25T19:51:43.925Z,29.90
2022-07-25T19:54:27.335Z,29.90
2022-07-25T19:57:01.308Z,30.00
2022-07-25T19:59:35.429Z,30.10
2022-07-25T20:02:09.013Z,30.10
2022-07-25T20:04:48.410Z,30.10
2022-07-25T20:07:27.719Z,30.10
2022-07-25T20:10:03.456Z,30.20
2022-07-25T20:12:38.830Z,30.20
2022-07-25T20:15:13.235Z,30.20
2022-07-25T20:17:46.994Z,30.10
2022-07-25T20:20:21.124Z,30.10
2022-07-25T20:23:00.862Z,29.90
2022-07-25T20:25:37.080Z,29.90
2022-07-25T20:28:10.911Z,29.80
2022-07-25T20:30:47.634Z,29.60
2022-07-25T20:33:25.043Z,29.70
2022-07-25T20:35:58.841Z,29.70
2022-07-25T20:38:33.582Z,29.70
2022-07-25T20:41:09.197Z,29.80
2022-07-25T20:43:44.467Z,29.80
2022-07-25T20:46:18.280Z,29.80
2022-07-25T20:48:52.259Z,29.90
2022-07-25T20:51:25.935Z,29.90
2022-07-25T20:53:59.476Z,29.90
2022-07-25T20:56:34.510Z,29.80
2022-07-25T20:59:08.825Z,29.70
2022-07-25T21:01:44.050Z,29.60
2022-07-25T21:04:18.161Z,29.50
2022-07-25T21:06:51.885Z,29.50
2022-07-25T21:09:32.582Z,29.40
2022-07-25T21:12:08.777Z,29.30
2022-07-25T21:14:42.847Z,29.40
2022-07-25T21:17:16.822Z,29.50
2022-07-25T21:19:50.587Z,29.40
2022-07-25T21:22:24.137Z,29.40
2022-07-25T21:24:57.473Z,29.50
2022-07-25T21:27:32.275Z,29.60
2022-07-25T21:30:06.442Z,29.60
2022-07-25T21:32:40.462Z,29.60
2022-07-25T21:35:14.453Z,29.50
2022-07-25T21:37:51.470Z,29.50
2022-07-25T21:40:27.927Z,29.50
2022-07-25T21:43:03.779Z,29.40
2022-07-25T21:45:36.959Z,29.40
2022-07-25T21:48:11.163Z,29.30
2022-07-25T21:50:58.570Z,29.40
2022-07-25T21:53:34.161Z,29.40
2022-07-25T21:56:08.519Z,29.60
2022-07-25T21:58:44.645Z,29.40
2022-07-25T22:01:18.227Z,29.30
2022-07-25T22:03:52.315Z,29.30
2022-07-25T22:06:26.666Z,29.30
2022-07-25T22:11:50.252Z,29.30
2022-07-25T22:14:26.661Z,29.30
2022-07-25T22:17:00.343Z,29.20
2022-07-25T22:19:34.563Z,29.20
2022-07-25T22:22:09.412Z,29.20
2022-07-25T22:24:46.628Z,29.10
2022-07-25T22:27:21.163Z,29.30
2022-07-25T22:29:57.168Z,29.40
2022-07-25T22:32:30.805Z,29.50
2022-07-25T22:35:04.985Z,29.60
2022-07-25T22:37:40.703Z,29.60
2022-07-25T22:40:16.119Z,29.80
2022-07-25T22:42:52.533Z,29.90
2022-07-25T22:45:27.445Z,30.00
2022-07-25T22:48:01.326Z,30.20
2022-07-25T22:50:34.722Z,30.30
2022-07-25T22:53:08.219Z,30.50
2022-07-25T22:55:41.355Z,30.60
2022-07-25T22:58:16.612Z,30.50
2022-07-25T23:00:52.426Z,30.50
2022-07-25T23:03:27.797Z,30.70
2022-07-25T23:06:07.204Z,30.80
2022-07-25T23:08:41.395Z,31.20
2022-07-25T23:11:15.540Z,31.30
2022-07-25T23:13:52.654Z,31.50
2022-07-25T23:16:28.725Z,31.60
2022-07-25T23:19:02.297Z,31.60
2022-07-25T23:21:35.981Z,32.10
2022-07-25T23:24:12.179Z,32.00
2022-07-25T23:26:47.061Z,32.20
2022-07-25T23:29:20.441Z,32.90
2022-07-25T23:31:56.651Z,32.50
2022-07-25T23:34:30.778Z,32.80
2022-07-25T23:37:04.655Z,33.30
2022-07-25T23:39:37.778Z,34.00
2022-07-25T23:42:11.541Z,34.60
2022-07-25T23:44:45.496Z,34.70
2022-07-25T23:47:26.775Z,34.50
2022-07-25T23:50:14.782Z,33.90
2022-07-25T23:52:48.870Z,33.60
2022-07-25T23:55:24.225Z,33.20
2022-07-25T23:57:58.066Z,33.30
